Weather at Flabob Airport

Public forecast

Using degrees Fahrenheit for public forecast. Weather courtesy of forecast.io.

Closest aviation weather report (METAR) to Flabob Airport

Closest report is Riverside Municipal Airport, 2.8 nm (5.2 km) SW. Retrieved 2021/10/26 04:53 UTC (60 minutes ago):

KRAL 260453Z AUTO 00000KT 10SM OVC021 13/11 A2996 RMK AO2 SLP134 T01280106

Closest aviation forecast (TAF) to Flabob Airport

Closest forecast is March Air Reserve Base, 10.0 nm (18.5 km) SE. Retrieved 2021-10-26 04:21 UTC (2 hours ago):

TAF KRIV 260410Z 2604/2710 VRB05KT 9999 FEW015 BKN025 BKN045 QNH2993INS TEMPO 2604/2612 SCT010 BKN015 BECMG 2611/2612 VRB04KT 9999 BKN010 QNH3000INS BECMG 2615/2616 VRB04KT 9999 FEW020 QNH3005INS BECMG 2620/2621 32009KT 9999 SCT030 QNH3003INS BECMG 2703/2704 VRB04KT 9999 SKC QNH3009INS TX21/2622Z TN09/2612Z